sensor_id;sensor_type;location;lat;lon;timestamp;noise_LAeq;noise_LA_min;noise_LA_max;noise_LA01;noise_LA95
76261;Laerm;65076;52.362;6.588;2022-12-29T00:00:09;43.65;36.68;56.97;;
76261;Laerm;65076;52.362;6.588;2022-12-29T00:02:39;50.92;36.62;72.30;;
76261;Laerm;65076;52.362;6.588;2022-12-29T00:05:07;45.67;36.26;69.12;;
76261;Laerm;65076;52.362;6.588;2022-12-29T00:07:35;52.37;38.07;72.06;;
76261;Laerm;65076;52.362;6.588;2022-12-29T00:10:06;44.48;36.13;63.78;;
76261;Laerm;65076;52.362;6.588;2022-12-29T00:12:34;47.05;36.67;71.07;;
76261;Laerm;65076;52.362;6.588;2022-12-29T00:15:16;46.78;36.01;65.57;;
76261;Laerm;65076;52.362;6.588;2022-12-29T00:18:03;44.73;37.50;60.72;;
76261;Laerm;65076;52.362;6.588;2022-12-29T00:20:33;45.86;38.12;66.69;;
76261;Laerm;65076;52.362;6.588;2022-12-29T00:23:20;42.11;34.78;54.03;;
76261;Laerm;65076;52.362;6.588;2022-12-29T00:26:14;45.19;35.80;66.73;;
76261;Laerm;65076;52.362;6.588;2022-12-29T00:29:00;48.18;37.03;64.70;;
76261;Laerm;65076;52.362;6.588;2022-12-29T00:31:45;46.81;35.86;74.05;;
76261;Laerm;65076;52.362;6.588;2022-12-29T00:34:32;51.57;36.61;72.22;;
76261;Laerm;65076;52.362;6.588;2022-12-29T00:37:18;52.27;39.35;70.05;;
76261;Laerm;65076;52.362;6.588;2022-12-29T00:40:08;43.12;36.51;59.00;;
76261;Laerm;65076;52.362;6.588;2022-12-29T00:42:52;51.60;36.46;69.31;;
76261;Laerm;65076;52.362;6.588;2022-12-29T00:45:40;49.47;38.68;68.56;;
76261;Laerm;65076;52.362;6.588;2022-12-29T00:48:08;42.24;35.66;61.79;;
76261;Laerm;65076;52.362;6.588;2022-12-29T00:50:37;46.86;37.12;67.74;;
76261;Laerm;65076;52.362;6.588;2022-12-29T00:53:04;44.18;37.23;62.75;;
76261;Laerm;65076;52.362;6.588;2022-12-29T00:55:36;46.51;36.68;69.90;;
76261;Laerm;65076;52.362;6.588;2022-12-29T00:58:05;42.57;36.98;58.32;;
76261;Laerm;65076;52.362;6.588;2022-12-29T01:00:33;43.99;37.89;59.64;;
76261;Laerm;65076;52.362;6.588;2022-12-29T01:03:01;52.79;37.19;70.58;;
76261;Laerm;65076;52.362;6.588;2022-12-29T01:05:29;47.51;37.13;71.65;;
76261;Laerm;65076;52.362;6.588;2022-12-29T01:07:58;47.83;36.97;71.68;;
76261;Laerm;65076;52.362;6.588;2022-12-29T01:10:26;39.58;35.18;52.37;;
76261;Laerm;65076;52.362;6.588;2022-12-29T01:12:53;42.18;35.39;52.94;;
76261;Laerm;65076;52.362;6.588;2022-12-29T01:15:21;43.11;36.17;63.42;;
76261;Laerm;65076;52.362;6.588;2022-12-29T01:17:49;50.70;36.02;68.23;;
76261;Laerm;65076;52.362;6.588;2022-12-29T01:20:18;44.15;38.02;57.17;;
76261;Laerm;65076;52.362;6.588;2022-12-29T01:22:46;47.54;36.56;67.80;;
76261;Laerm;65076;52.362;6.588;2022-12-29T01:25:16;45.42;35.33;63.85;;
76261;Laerm;65076;52.362;6.588;2022-12-29T01:27:44;39.89;34.81;45.38;;
76261;Laerm;65076;52.362;6.588;2022-12-29T01:30:12;40.98;35.00;63.44;;
76261;Laerm;65076;52.362;6.588;2022-12-29T01:32:40;44.69;35.87;63.77;;
76261;Laerm;65076;52.362;6.588;2022-12-29T01:35:08;43.56;35.61;65.25;;
76261;Laerm;65076;52.362;6.588;2022-12-29T01:37:37;41.00;35.86;57.93;;
76261;Laerm;65076;52.362;6.588;2022-12-29T01:40:06;39.98;35.72;49.65;;
76261;Laerm;65076;52.362;6.588;2022-12-29T01:42:35;41.76;33.22;61.39;;
76261;Laerm;65076;52.362;6.588;2022-12-29T01:45:10;41.78;36.34;61.22;;
76261;Laerm;65076;52.362;6.588;2022-12-29T01:47:43;45.33;37.52;69.36;;
76261;Laerm;65076;52.362;6.588;2022-12-29T01:50:20;42.31;35.23;61.82;;
76261;Laerm;65076;52.362;6.588;2022-12-29T01:52:54;42.06;32.82;61.11;;
76261;Laerm;65076;52.362;6.588;2022-12-29T01:55:25;44.26;36.37;63.24;;
76261;Laerm;65076;52.362;6.588;2022-12-29T01:57:58;51.22;37.72;76.69;;
76261;Laerm;65076;52.362;6.588;2022-12-29T02:00:27;41.70;35.22;56.27;;
76261;Laerm;65076;52.362;6.588;2022-12-29T02:02:55;41.39;36.05;59.26;;
76261;Laerm;65076;52.362;6.588;2022-12-29T02:05:30;46.62;36.62;67.66;;
76261;Laerm;65076;52.362;6.588;2022-12-29T02:08:02;45.14;36.00;67.27;;
76261;Laerm;65076;52.362;6.588;2022-12-29T02:10:32;46.19;37.16;64.21;;
76261;Laerm;65076;52.362;6.588;2022-12-29T02:13:03;46.41;37.61;64.24;;
76261;Laerm;65076;52.362;6.588;2022-12-29T02:15:42;42.09;34.89;62.21;;
76261;Laerm;65076;52.362;6.588;2022-12-29T02:18:27;41.25;34.68;55.83;;
76261;Laerm;65076;52.362;6.588;2022-12-29T02:21:44;45.37;36.09;63.68;;
76261;Laerm;65076;52.362;6.588;2022-12-29T02:27:50;38.86;34.70;52.28;;
76261;Laerm;65076;52.362;6.588;2022-12-29T02:30:43;45.96;34.33;68.24;;
76261;Laerm;65076;52.362;6.588;2022-12-29T02:33:39;43.12;35.50;57.68;;
76261;Laerm;65076;52.362;6.588;2022-12-29T02:36:23;48.32;35.83;67.37;;
76261;Laerm;65076;52.362;6.588;2022-12-29T02:39:05;42.10;36.41;58.46;;
76261;Laerm;65076;52.362;6.588;2022-12-29T02:41:50;41.38;34.20;61.29;;
76261;Laerm;65076;52.362;6.588;2022-12-29T02:44:34;42.22;35.23;66.71;;
76261;Laerm;65076;52.362;6.588;2022-12-29T02:47:14;44.34;36.48;66.86;;
76261;Laerm;65076;52.362;6.588;2022-12-29T02:49:55;49.38;36.18;72.85;;
76261;Laerm;65076;52.362;6.588;2022-12-29T02:52:30;54.93;36.95;80.71;;
76261;Laerm;65076;52.362;6.588;2022-12-29T02:55:00;43.20;36.49;62.92;;
76261;Laerm;65076;52.362;6.588;2022-12-29T02:57:31;46.94;36.37;67.64;;
76261;Laerm;65076;52.362;6.588;2022-12-29T03:00:05;50.16;38.44;72.20;;
76261;Laerm;65076;52.362;6.588;2022-12-29T03:03:16;52.12;38.44;79.48;;
76261;Laerm;65076;52.362;6.588;2022-12-29T03:06:09;45.89;36.71;70.63;;
76261;Laerm;65076;52.362;6.588;2022-12-29T03:08:49;47.78;37.29;69.99;;
76261;Laerm;65076;52.362;6.588;2022-12-29T03:11:33;49.59;38.29;66.40;;
76261;Laerm;65076;52.362;6.588;2022-12-29T03:14:29;51.95;38.19;74.04;;
76261;Laerm;65076;52.362;6.588;2022-12-29T03:17:27;46.41;38.05;71.66;;
76261;Laerm;65076;52.362;6.588;2022-12-29T03:20:04;45.18;38.73;68.82;;
76261;Laerm;65076;52.362;6.588;2022-12-29T03:22:38;46.25;39.27;69.74;;
76261;Laerm;65076;52.362;6.588;2022-12-29T03:25:14;43.50;38.30;65.34;;
76261;Laerm;65076;52.362;6.588;2022-12-29T03:27:49;49.57;39.86;74.05;;
76261;Laerm;65076;52.362;6.588;2022-12-29T03:30:18;55.17;42.73;83.78;;
76261;Laerm;65076;52.362;6.588;2022-12-29T03:32:51;51.90;42.40;83.69;;
76261;Laerm;65076;52.362;6.588;2022-12-29T03:35:25;50.92;41.60;83.18;;
76261;Laerm;65076;52.362;6.588;2022-12-29T03:37:59;53.03;38.51;79.20;;
76261;Laerm;65076;52.362;6.588;2022-12-29T03:40:32;52.23;37.61;80.59;;
76261;Laerm;65076;52.362;6.588;2022-12-29T03:43:03;54.74;35.80;74.71;;
76261;Laerm;65076;52.362;6.588;2022-12-29T03:45:31;61.36;38.32;76.32;;
76261;Laerm;65076;52.362;6.588;2022-12-29T03:47:59;43.56;36.66;69.75;;
76261;Laerm;65076;52.362;6.588;2022-12-29T03:50:28;46.30;34.51;79.21;;
76261;Laerm;65076;52.362;6.588;2022-12-29T03:52:56;51.03;33.77;70.93;;
76261;Laerm;65076;52.362;6.588;2022-12-29T03:55:24;40.28;32.82;65.15;;
76261;Laerm;65076;52.362;6.588;2022-12-29T03:57:52;37.93;33.09;64.04;;
76261;Laerm;65076;52.362;6.588;2022-12-29T04:00:20;41.62;32.50;69.08;;
76261;Laerm;65076;52.362;6.588;2022-12-29T04:02:48;41.61;33.37;65.57;;
76261;Laerm;65076;52.362;6.588;2022-12-29T04:05:17;39.27;34.64;63.10;;
76261;Laerm;65076;52.362;6.588;2022-12-29T04:07:46;39.39;34.18;63.42;;
76261;Laerm;65076;52.362;6.588;2022-12-29T04:10:14;57.85;34.28;76.26;;
76261;Laerm;65076;52.362;6.588;2022-12-29T04:12:42;39.42;33.74;64.59;;
76261;Laerm;65076;52.362;6.588;2022-12-29T04:15:12;42.84;35.33;64.92;;
76261;Laerm;65076;52.362;6.588;2022-12-29T04:17:40;44.56;34.68;61.45;;
76261;Laerm;65076;52.362;6.588;2022-12-29T04:20:09;69.02;35.39;82.22;;
76261;Laerm;65076;52.362;6.588;2022-12-29T04:23:01;41.75;33.91;64.26;;
76261;Laerm;65076;52.362;6.588;2022-12-29T04:25:31;42.31;34.00;60.86;;
76261;Laerm;65076;52.362;6.588;2022-12-29T04:28:00;67.01;37.48;79.73;;
76261;Laerm;65076;52.362;6.588;2022-12-29T04:30:28;51.43;34.49;69.33;;
76261;Laerm;65076;52.362;6.588;2022-12-29T04:32:56;40.64;35.75;64.61;;
76261;Laerm;65076;52.362;6.588;2022-12-29T04:35:24;38.18;35.04;42.01;;
76261;Laerm;65076;52.362;6.588;2022-12-29T04:37:52;40.95;34.41;73.62;;
76261;Laerm;65076;52.362;6.588;2022-12-29T04:40:21;56.07;34.73;76.80;;
76261;Laerm;65076;52.362;6.588;2022-12-29T04:42:50;59.94;36.38;76.70;;
76261;Laerm;65076;52.362;6.588;2022-12-29T04:45:18;43.75;35.95;55.90;;
76261;Laerm;65076;52.362;6.588;2022-12-29T04:47:46;44.36;36.43;62.10;;
76261;Laerm;65076;52.362;6.588;2022-12-29T04:50:14;39.17;34.96;53.03;;
76261;Laerm;65076;52.362;6.588;2022-12-29T04:52:43;42.38;34.11;61.34;;
76261;Laerm;65076;52.362;6.588;2022-12-29T04:55:11;50.60;34.81;68.02;;
76261;Laerm;65076;52.362;6.588;2022-12-29T04:57:41;46.69;34.48;63.16;;
76261;Laerm;65076;52.362;6.588;2022-12-29T05:00:11;54.27;36.56;73.29;;
76261;Laerm;65076;52.362;6.588;2022-12-29T05:02:40;40.34;35.48;58.77;;
76261;Laerm;65076;52.362;6.588;2022-12-29T05:05:09;53.43;36.71;68.43;;
76261;Laerm;65076;52.362;6.588;2022-12-29T05:07:38;49.25;36.99;63.82;;
76261;Laerm;65076;52.362;6.588;2022-12-29T05:10:08;60.94;36.67;77.63;;
76261;Laerm;65076;52.362;6.588;2022-12-29T05:12:37;48.19;36.76;62.50;;
76261;Laerm;65076;52.362;6.588;2022-12-29T05:15:09;41.07;36.35;63.18;;
76261;Laerm;65076;52.362;6.588;2022-12-29T05:17:37;48.69;36.55;65.24;;
76261;Laerm;65076;52.362;6.588;2022-12-29T05:20:07;38.64;34.71;52.49;;
76261;Laerm;65076;52.362;6.588;2022-12-29T05:22:35;44.11;36.10;63.05;;
76261;Laerm;65076;52.362;6.588;2022-12-29T05:25:04;53.05;36.69;67.51;;
76261;Laerm;65076;52.362;6.588;2022-12-29T05:27:33;46.05;36.63;66.29;;
76261;Laerm;65076;52.362;6.588;2022-12-29T05:30:01;54.31;37.66;72.17;;
76261;Laerm;65076;52.362;6.588;2022-12-29T05:32:30;48.38;36.31;60.94;;
76261;Laerm;65076;52.362;6.588;2022-12-29T05:34:58;47.21;38.65;62.58;;
76261;Laerm;65076;52.362;6.588;2022-12-29T05:37:26;52.69;36.91;75.49;;
76261;Laerm;65076;52.362;6.588;2022-12-29T05:39:54;49.48;37.53;71.21;;
76261;Laerm;65076;52.362;6.588;2022-12-29T05:42:22;49.67;36.62;65.45;;
76261;Laerm;65076;52.362;6.588;2022-12-29T05:44:50;57.57;38.67;78.50;;
76261;Laerm;65076;52.362;6.588;2022-12-29T05:47:20;60.98;38.96;76.66;;
76261;Laerm;65076;52.362;6.588;2022-12-29T05:49:49;47.95;37.66;61.12;;
76261;Laerm;65076;52.362;6.588;2022-12-29T05:52:18;48.37;38.42;64.77;;
76261;Laerm;65076;52.362;6.588;2022-12-29T05:54:46;51.38;39.28;67.10;;
76261;Laerm;65076;52.362;6.588;2022-12-29T05:57:14;57.87;38.23;77.48;;
76261;Laerm;65076;52.362;6.588;2022-12-29T05:59:42;55.87;41.92;78.22;;
76261;Laerm;65076;52.362;6.588;2022-12-29T06:02:10;50.33;38.12;65.53;;
76261;Laerm;65076;52.362;6.588;2022-12-29T06:04:38;51.59;38.54;67.38;;
76261;Laerm;65076;52.362;6.588;2022-12-29T06:07:07;48.21;39.91;61.59;;
76261;Laerm;65076;52.362;6.588;2022-12-29T06:09:35;52.07;40.05;65.88;;
76261;Laerm;65076;52.362;6.588;2022-12-29T06:12:04;62.93;46.60;77.56;;
76261;Laerm;65076;52.362;6.588;2022-12-29T06:14:32;58.75;40.79;76.67;;
76261;Laerm;65076;52.362;6.588;2022-12-29T06:17:01;51.87;39.33;64.66;;
76261;Laerm;65076;52.362;6.588;2022-12-29T06:19:29;60.61;41.86;76.21;;
76261;Laerm;65076;52.362;6.588;2022-12-29T06:21:57;54.21;41.53;75.78;;
76261;Laerm;65076;52.362;6.588;2022-12-29T06:24:26;50.91;39.29;68.22;;
76261;Laerm;65076;52.362;6.588;2022-12-29T06:26:54;55.51;43.58;67.50;;
76261;Laerm;65076;52.362;6.588;2022-12-29T06:29:22;54.53;42.67;71.97;;
76261;Laerm;65076;52.362;6.588;2022-12-29T06:31:50;55.42;40.45;67.89;;
76261;Laerm;65076;52.362;6.588;2022-12-29T06:34:22;50.74;38.89;63.25;;
76261;Laerm;65076;52.362;6.588;2022-12-29T06:36:50;57.94;42.13;75.38;;
76261;Laerm;65076;52.362;6.588;2022-12-29T06:39:18;55.64;41.26;66.98;;
76261;Laerm;65076;52.362;6.588;2022-12-29T06:41:48;61.93;41.76;77.14;;
76261;Laerm;65076;52.362;6.588;2022-12-29T06:44:19;53.37;40.84;67.00;;
76261;Laerm;65076;52.362;6.588;2022-12-29T06:46:47;57.16;40.12;71.26;;
76261;Laerm;65076;52.362;6.588;2022-12-29T06:49:15;56.55;42.82;71.82;;
76261;Laerm;65076;52.362;6.588;2022-12-29T06:51:43;57.13;44.61;66.98;;
76261;Laerm;65076;52.362;6.588;2022-12-29T06:54:11;59.54;41.93;74.28;;
76261;Laerm;65076;52.362;6.588;2022-12-29T06:56:38;51.56;39.93;65.99;;
76261;Laerm;65076;52.362;6.588;2022-12-29T06:59:09;57.40;41.34;76.36;;
76261;Laerm;65076;52.362;6.588;2022-12-29T07:01:37;57.18;41.17;72.11;;
76261;Laerm;65076;52.362;6.588;2022-12-29T07:04:05;55.85;40.02;69.46;;
76261;Laerm;65076;52.362;6.588;2022-12-29T07:06:33;55.39;43.10;72.11;;
76261;Laerm;65076;52.362;6.588;2022-12-29T07:09:01;50.64;41.47;66.85;;
76261;Laerm;65076;52.362;6.588;2022-12-29T07:11:29;67.56;43.18;78.21;;
76261;Laerm;65076;52.362;6.588;2022-12-29T07:13:56;55.81;40.51;71.31;;
76261;Laerm;65076;52.362;6.588;2022-12-29T07:16:29;57.35;40.98;69.94;;
76261;Laerm;65076;52.362;6.588;2022-12-29T07:18:57;58.29;40.65;73.16;;
76261;Laerm;65076;52.362;6.588;2022-12-29T07:21:26;58.89;45.33;73.72;;
76261;Laerm;65076;52.362;6.588;2022-12-29T07:23:54;58.63;46.25;69.96;;
76261;Laerm;65076;52.362;6.588;2022-12-29T07:26:22;56.98;44.54;67.31;;
76261;Laerm;65076;52.362;6.588;2022-12-29T07:28:50;55.83;43.41;72.82;;
76261;Laerm;65076;52.362;6.588;2022-12-29T07:31:21;60.59;44.23;70.75;;
76261;Laerm;65076;52.362;6.588;2022-12-29T07:33:51;58.49;43.55;70.99;;
76261;Laerm;65076;52.362;6.588;2022-12-29T07:36:26;56.47;43.36;69.99;;
76261;Laerm;65076;52.362;6.588;2022-12-29T07:39:00;58.01;40.50;75.84;;
76261;Laerm;65076;52.362;6.588;2022-12-29T07:41:28;60.10;40.99;75.89;;
76261;Laerm;65076;52.362;6.588;2022-12-29T07:43:56;62.06;42.19;75.30;;
76261;Laerm;65076;52.362;6.588;2022-12-29T07:46:24;57.83;41.91;70.01;;
76261;Laerm;65076;52.362;6.588;2022-12-29T07:49:13;59.15;42.23;76.68;;
76261;Laerm;65076;52.362;6.588;2022-12-29T07:51:55;54.35;41.85;66.43;;
76261;Laerm;65076;52.362;6.588;2022-12-29T07:54:24;57.90;46.49;71.03;;
76261;Laerm;65076;52.362;6.588;2022-12-29T07:56:52;59.02;41.56;76.58;;
76261;Laerm;65076;52.362;6.588;2022-12-29T07:59:20;54.59;42.07;70.16;;
76261;Laerm;65076;52.362;6.588;2022-12-29T08:01:48;59.76;43.48;71.80;;
76261;Laerm;65076;52.362;6.588;2022-12-29T08:04:17;55.92;42.38;72.84;;
76261;Laerm;65076;52.362;6.588;2022-12-29T08:06:45;58.26;47.80;75.88;;
76261;Laerm;65076;52.362;6.588;2022-12-29T08:09:13;59.82;43.74;78.21;;
76261;Laerm;65076;52.362;6.588;2022-12-29T08:11:48;56.82;42.02;67.77;;
76261;Laerm;65076;52.362;6.588;2022-12-29T08:14:16;62.68;45.14;76.81;;
76261;Laerm;65076;52.362;6.588;2022-12-29T08:16:44;59.48;44.26;73.28;;
76261;Laerm;65076;52.362;6.588;2022-12-29T08:19:13;61.56;45.42;73.82;;
76261;Laerm;65076;52.362;6.588;2022-12-29T08:21:43;58.52;45.28;70.89;;
76261;Laerm;65076;52.362;6.588;2022-12-29T08:24:10;54.65;42.16;67.19;;
76261;Laerm;65076;52.362;6.588;2022-12-29T08:26:38;58.14;42.90;70.50;;
76261;Laerm;65076;52.362;6.588;2022-12-29T08:29:06;56.96;46.78;72.27;;
76261;Laerm;65076;52.362;6.588;2022-12-29T08:31:34;63.40;46.85;77.94;;
76261;Laerm;65076;52.362;6.588;2022-12-29T08:34:02;57.94;45.17;67.39;;
76261;Laerm;65076;52.362;6.588;2022-12-29T08:36:30;58.08;44.30;71.44;;
76261;Laerm;65076;52.362;6.588;2022-12-29T08:39:00;59.46;44.25;76.22;;
76261;Laerm;65076;52.362;6.588;2022-12-29T08:41:28;55.97;44.39;67.45;;
76261;Laerm;65076;52.362;6.588;2022-12-29T08:43:56;59.05;42.47;74.16;;
76261;Laerm;65076;52.362;6.588;2022-12-29T08:46:24;68.60;45.51;82.18;;
76261;Laerm;65076;52.362;6.588;2022-12-29T08:48:52;59.22;42.84;72.83;;
76261;Laerm;65076;52.362;6.588;2022-12-29T08:51:21;59.62;44.04;74.28;;
76261;Laerm;65076;52.362;6.588;2022-12-29T08:53:51;56.44;46.44;65.97;;
76261;Laerm;65076;52.362;6.588;2022-12-29T08:56:20;60.10;46.44;80.36;;
76261;Laerm;65076;52.362;6.588;2022-12-29T08:58:50;60.00;47.14;74.61;;
76261;Laerm;65076;52.362;6.588;2022-12-29T09:01:18;58.84;47.22;73.75;;
76261;Laerm;65076;52.362;6.588;2022-12-29T09:03:47;54.29;45.48;64.54;;
76261;Laerm;65076;52.362;6.588;2022-12-29T09:06:35;56.21;44.56;67.48;;
76261;Laerm;65076;52.362;6.588;2022-12-29T09:09:06;60.35;46.15;74.71;;
76261;Laerm;65076;52.362;6.588;2022-12-29T09:11:35;61.59;44.39;76.54;;
76261;Laerm;65076;52.362;6.588;2022-12-29T09:14:03;55.99;42.42;68.05;;
76261;Laerm;65076;52.362;6.588;2022-12-29T09:16:32;58.68;48.02;67.04;;
76261;Laerm;65076;52.362;6.588;2022-12-29T09:19:01;56.93;44.72;67.33;;
76261;Laerm;65076;52.362;6.588;2022-12-29T09:21:29;61.35;44.62;75.55;;
76261;Laerm;65076;52.362;6.588;2022-12-29T09:23:58;57.40;44.77;66.32;;
76261;Laerm;65076;52.362;6.588;2022-12-29T09:26:25;57.24;45.10;74.20;;
76261;Laerm;65076;52.362;6.588;2022-12-29T09:28:55;56.90;46.90;72.75;;
76261;Laerm;65076;52.362;6.588;2022-12-29T09:31:23;59.14;45.69;71.04;;
76261;Laerm;65076;52.362;6.588;2022-12-29T09:33:51;58.88;46.70;71.31;;
76261;Laerm;65076;52.362;6.588;2022-12-29T09:36:19;56.66;45.21;69.64;;
76261;Laerm;65076;52.362;6.588;2022-12-29T09:38:47;59.10;46.90;76.20;;
76261;Laerm;65076;52.362;6.588;2022-12-29T09:41:24;60.47;43.87;76.17;;
76261;Laerm;65076;52.362;6.588;2022-12-29T09:44:13;61.59;45.44;77.24;;
76261;Laerm;65076;52.362;6.588;2022-12-29T09:46:48;56.64;46.19;69.10;;
76261;Laerm;65076;52.362;6.588;2022-12-29T09:49:27;60.05;43.97;73.87;;
76261;Laerm;65076;52.362;6.588;2022-12-29T09:52:04;54.33;44.19;64.16;;
76261;Laerm;65076;52.362;6.588;2022-12-29T09:54:43;58.97;47.69;70.16;;
76261;Laerm;65076;52.362;6.588;2022-12-29T09:57:27;58.90;44.86;78.13;;
76261;Laerm;65076;52.362;6.588;2022-12-29T10:00:10;56.43;47.15;72.17;;
76261;Laerm;65076;52.362;6.588;2022-12-29T10:02:44;58.02;45.98;72.22;;
76261;Laerm;65076;52.362;6.588;2022-12-29T10:05:28;56.19;45.76;67.20;;
76261;Laerm;65076;52.362;6.588;2022-12-29T10:08:21;59.57;46.11;77.29;;
76261;Laerm;65076;52.362;6.588;2022-12-29T10:10:57;62.11;46.59;77.50;;
76261;Laerm;65076;52.362;6.588;2022-12-29T10:13:43;59.30;49.55;72.58;;
76261;Laerm;65076;52.362;6.588;2022-12-29T10:16:25;55.21;44.31;68.61;;
76261;Laerm;65076;52.362;6.588;2022-12-29T10:19:18;62.37;48.94;81.20;;
76261;Laerm;65076;52.362;6.588;2022-12-29T10:22:08;65.23;48.31;82.76;;
76261;Laerm;65076;52.362;6.588;2022-12-29T10:24:41;57.46;47.44;70.05;;
76261;Laerm;65076;52.362;6.588;2022-12-29T10:27:13;59.54;47.03;75.90;;
76261;Laerm;65076;52.362;6.588;2022-12-29T10:29:48;57.73;45.91;77.20;;
76261;Laerm;65076;52.362;6.588;2022-12-29T10:32:29;58.15;48.27;77.42;;
76261;Laerm;65076;52.362;6.588;2022-12-29T10:35:05;58.42;48.99;74.71;;
76261;Laerm;65076;52.362;6.588;2022-12-29T10:37:43;59.47;45.87;76.81;;
76261;Laerm;65076;52.362;6.588;2022-12-29T10:40:22;62.41;46.08;78.94;;
76261;Laerm;65076;52.362;6.588;2022-12-29T10:42:55;60.65;49.14;88.30;;
76261;Laerm;65076;52.362;6.588;2022-12-29T10:45:30;61.18;48.02;78.56;;
76261;Laerm;65076;52.362;6.588;2022-12-29T10:48:09;57.11;47.31;69.88;;
76261;Laerm;65076;52.362;6.588;2022-12-29T10:50:40;62.14;48.70;74.30;;
76261;Laerm;65076;52.362;6.588;2022-12-29T10:53:17;58.82;47.94;74.31;;
76261;Laerm;65076;52.362;6.588;2022-12-29T10:55:47;59.38;46.83;76.59;;
76261;Laerm;65076;52.362;6.588;2022-12-29T10:58:17;58.61;47.64;79.24;;
76261;Laerm;65076;52.362;6.588;2022-12-29T11:00:51;64.47;52.27;83.31;;
76261;Laerm;65076;52.362;6.588;2022-12-29T11:03:44;57.99;45.08;71.14;;
76261;Laerm;65076;52.362;6.588;2022-12-29T11:06:24;59.15;46.92;68.87;;
76261;Laerm;65076;52.362;6.588;2022-12-29T11:08:57;59.52;47.79;72.53;;
76261;Laerm;65076;52.362;6.588;2022-12-29T11:11:32;59.21;44.12;75.87;;
76261;Laerm;65076;52.362;6.588;2022-12-29T11:14:11;56.99;44.38;67.32;;
76261;Laerm;65076;52.362;6.588;2022-12-29T11:16:41;56.70;42.99;73.34;;
76261;Laerm;65076;52.362;6.588;2022-12-29T11:19:24;63.57;43.86;76.90;;
76261;Laerm;65076;52.362;6.588;2022-12-29T11:21:52;59.67;46.49;76.92;;
76261;Laerm;65076;52.362;6.588;2022-12-29T11:24:23;57.56;44.22;67.96;;
76261;Laerm;65076;52.362;6.588;2022-12-29T11:26:53;58.95;46.18;69.72;;
76261;Laerm;65076;52.362;6.588;2022-12-29T11:29:27;56.11;48.08;71.53;;
76261;Laerm;65076;52.362;6.588;2022-12-29T11:31:57;59.12;47.36;75.55;;
76261;Laerm;65076;52.362;6.588;2022-12-29T11:34:34;59.13;46.91;75.93;;
76261;Laerm;65076;52.362;6.588;2022-12-29T11:37:06;59.05;46.61;78.21;;
76261;Laerm;65076;52.362;6.588;2022-12-29T11:39:41;63.91;46.40;78.25;;
76261;Laerm;65076;52.362;6.588;2022-12-29T11:42:17;56.71;43.94;82.61;;
76261;Laerm;65076;52.362;6.588;2022-12-29T11:44:48;56.65;45.57;74.27;;
76261;Laerm;65076;52.362;6.588;2022-12-29T11:47:26;61.33;46.33;91.06;;
76261;Laerm;65076;52.362;6.588;2022-12-29T11:50:01;56.82;45.36;68.89;;
76261;Laerm;65076;52.362;6.588;2022-12-29T11:52:34;59.77;47.26;74.51;;
76261;Laerm;65076;52.362;6.588;2022-12-29T11:55:18;59.04;45.58;75.62;;
76261;Laerm;65076;52.362;6.588;2022-12-29T11:57:50;59.66;45.14;73.94;;
76261;Laerm;65076;52.362;6.588;2022-12-29T12:00:22;57.58;48.06;71.84;;
76261;Laerm;65076;52.362;6.588;2022-12-29T12:02:57;60.48;46.51;74.93;;
76261;Laerm;65076;52.362;6.588;2022-12-29T12:05:39;57.86;46.30;68.38;;
76261;Laerm;65076;52.362;6.588;2022-12-29T12:08:17;60.16;48.79;76.50;;
76261;Laerm;65076;52.362;6.588;2022-12-29T12:10:54;60.45;44.25;76.65;;
76261;Laerm;65076;52.362;6.588;2022-12-29T12:13:33;56.22;45.70;66.86;;
76261;Laerm;65076;52.362;6.588;2022-12-29T12:16:08;57.43;44.06;70.74;;
76261;Laerm;65076;52.362;6.588;2022-12-29T12:18:45;56.19;45.24;67.02;;
76261;Laerm;65076;52.362;6.588;2022-12-29T12:21:25;59.81;46.33;75.04;;
76261;Laerm;65076;52.362;6.588;2022-12-29T12:24:34;68.29;44.33;98.36;;
76261;Laerm;65076;52.362;6.588;2022-12-29T12:27:13;73.94;46.28;101.14;;
76261;Laerm;65076;52.362;6.588;2022-12-29T12:29:51;56.87;46.23;71.62;;
76261;Laerm;65076;52.362;6.588;2022-12-29T12:32:33;66.59;45.42;95.83;;
76261;Laerm;65076;52.362;6.588;2022-12-29T12:35:05;57.09;44.17;69.95;;
76261;Laerm;65076;52.362;6.588;2022-12-29T12:37:56;59.05;46.03;83.98;;
76261;Laerm;65076;52.362;6.588;2022-12-29T12:41:06;62.50;45.80;76.98;;
76261;Laerm;65076;52.362;6.588;2022-12-29T12:43:46;60.49;45.47;76.58;;
76261;Laerm;65076;52.362;6.588;2022-12-29T12:46:46;56.59;45.23;66.61;;
76261;Laerm;65076;52.362;6.588;2022-12-29T12:49:52;68.18;44.74;81.69;;
76261;Laerm;65076;52.362;6.588;2022-12-29T12:52:41;68.93;46.57;92.12;;
76261;Laerm;65076;52.362;6.588;2022-12-29T12:55:49;59.70;45.27;76.88;;
76261;Laerm;65076;52.362;6.588;2022-12-29T12:58:35;56.44;45.44;76.72;;
76261;Laerm;65076;52.362;6.588;2022-12-29T13:01:22;58.86;47.46;81.94;;
76261;Laerm;65076;52.362;6.588;2022-12-29T13:04:32;56.08;43.24;69.98;;
76261;Laerm;65076;52.362;6.588;2022-12-29T13:07:14;63.37;48.00;76.79;;
76261;Laerm;65076;52.362;6.588;2022-12-29T13:10:06;61.74;47.83;75.64;;
76261;Laerm;65076;52.362;6.588;2022-12-29T13:12:49;58.21;42.71;72.62;;
76261;Laerm;65076;52.362;6.588;2022-12-29T13:15:41;58.32;46.38;69.19;;
76261;Laerm;65076;52.362;6.588;2022-12-29T13:18:22;57.02;44.17;68.33;;
76261;Laerm;65076;52.362;6.588;2022-12-29T13:21:06;60.95;47.20;75.13;;
76261;Laerm;65076;52.362;6.588;2022-12-29T13:23:46;56.22;44.47;67.09;;
76261;Laerm;65076;52.362;6.588;2022-12-29T13:26:23;58.64;46.03;77.02;;
76261;Laerm;65076;52.362;6.588;2022-12-29T13:29:12;56.81;46.20;72.65;;
76261;Laerm;65076;52.362;6.588;2022-12-29T13:32:18;57.91;47.12;69.61;;
76261;Laerm;65076;52.362;6.588;2022-12-29T13:35:04;57.28;42.93;66.34;;
76261;Laerm;65076;52.362;6.588;2022-12-29T13:37:44;53.32;43.71;76.16;;
76261;Laerm;65076;52.362;6.588;2022-12-29T13:40:18;62.56;45.86;75.81;;
76261;Laerm;65076;52.362;6.588;2022-12-29T13:42:50;59.50;45.14;75.69;;
76261;Laerm;65076;52.362;6.588;2022-12-29T13:45:24;55.95;45.28;64.90;;
76261;Laerm;65076;52.362;6.588;2022-12-29T13:47:59;58.26;46.03;69.73;;
76261;Laerm;65076;52.362;6.588;2022-12-29T13:50:37;60.31;44.06;75.22;;
76261;Laerm;65076;52.362;6.588;2022-12-29T13:53:16;55.77;44.19;66.78;;
76261;Laerm;65076;52.362;6.588;2022-12-29T13:55:53;59.22;45.24;76.70;;
76261;Laerm;65076;52.362;6.588;2022-12-29T13:58:39;58.10;42.58;79.14;;
76261;Laerm;65076;52.362;6.588;2022-12-29T14:01:16;56.33;43.14;72.44;;
76261;Laerm;65076;52.362;6.588;2022-12-29T14:03:49;54.05;42.55;71.66;;
76261;Laerm;65076;52.362;6.588;2022-12-29T14:06:26;55.64;43.13;65.89;;
76261;Laerm;65076;52.362;6.588;2022-12-29T14:08:58;58.20;43.91;75.75;;
76261;Laerm;65076;52.362;6.588;2022-12-29T14:11:34;60.29;44.44;75.31;;
76261;Laerm;65076;52.362;6.588;2022-12-29T14:14:14;56.06;45.07;68.52;;
76261;Laerm;65076;52.362;6.588;2022-12-29T14:16:49;56.50;41.19;71.92;;
76261;Laerm;65076;52.362;6.588;2022-12-29T14:19:24;59.18;44.81;76.16;;
76261;Laerm;65076;52.362;6.588;2022-12-29T14:22:23;57.94;46.92;68.07;;
76261;Laerm;65076;52.362;6.588;2022-12-29T14:24:59;56.20;46.55;69.32;;
76261;Laerm;65076;52.362;6.588;2022-12-29T14:27:51;56.93;47.10;75.17;;